createdAt,value
2023-02-03T00:02:05.472Z,101141.63
2023-02-03T00:04:32.984Z,101155.31
2023-02-03T00:07:00.120Z,101163.88
2023-02-03T00:09:27.274Z,101169.09
2023-02-03T00:11:54.821Z,101175.97
2023-02-03T00:14:21.943Z,101169.13
2023-02-03T00:16:49.128Z,101179.41
2023-02-03T00:19:17.612Z,101176.03
2023-02-03T00:21:45.127Z,101178.59
2023-02-03T00:24:12.233Z,101186.31
2023-02-03T00:26:43.328Z,101184.59
2023-02-03T00:29:10.978Z,101191.44
2023-02-03T00:31:38.315Z,101189.72
2023-02-03T00:34:06.121Z,101200.88
2023-02-03T00:36:33.218Z,101195.81
2023-02-03T00:39:01.304Z,101198.34
2023-02-03T00:41:31.605Z,101195.84
2023-02-03T00:43:58.742Z,101201.78
2023-02-03T00:46:25.987Z,101198.34
2023-02-03T00:48:53.388Z,101195.84
2023-02-03T00:51:21.451Z,101200.06
2023-02-03T00:53:49.007Z,101207.75
2023-02-03T00:56:16.455Z,101206.91
2023-02-03T00:58:44.414Z,101210.31
2023-02-03T01:01:11.937Z,101210.28
2023-02-03T01:03:39.493Z,101218.84
2023-02-03T01:06:24.613Z,101219.66
2023-02-03T01:08:54.657Z,101238.59
2023-02-03T01:11:24.196Z,101232.63
2023-02-03T01:13:52.216Z,101224.91
2023-02-03T01:16:21.299Z,101227.47
2023-02-03T01:18:49.029Z,101226.59
2023-02-03T01:21:22.339Z,101235.22
2023-02-03T01:23:49.527Z,101224.94
2023-02-03T01:26:20.019Z,101245.50
2023-02-03T01:28:58.834Z,101232.69
2023-02-03T01:31:29.562Z,101235.25
2023-02-03T01:33:56.982Z,101233.53
2023-02-03T01:36:26.150Z,101235.22
2023-02-03T01:38:53.683Z,101242.91
2023-02-03T01:41:25.317Z,101245.41
2023-02-03T01:43:54.632Z,101251.34
2023-02-03T01:46:42.200Z,101256.41
2023-02-03T01:49:23.019Z,101263.16
2023-02-03T01:51:50.883Z,101265.72
2023-02-03T01:54:22.746Z,101270.87
2023-02-03T01:56:54.935Z,101280.38
2023-02-03T01:59:23.763Z,101276.22
2023-02-03T02:01:51.771Z,101269.41
2023-02-03T02:04:19.465Z,101268.69
2023-02-03T02:06:48.769Z,101271.31
2023-02-03T02:09:16.302Z,101264.53
2023-02-03T02:11:43.775Z,101262.84
2023-02-03T02:14:11.088Z,101262.00
2023-02-03T02:16:52.560Z,101255.19
2023-02-03T02:19:47.473Z,101262.94
2023-02-03T02:22:19.233Z,101256.16
2023-02-03T02:24:55.456Z,101255.22
2023-02-03T02:27:51.032Z,101244.84
2023-02-03T02:30:24.499Z,101244.00
2023-02-03T02:33:10.888Z,101239.78
2023-02-03T02:35:46.268Z,101238.81
2023-02-03T02:38:28.907Z,101239.63
2023-02-03T02:41:08.357Z,101238.72
2023-02-03T02:43:42.363Z,101241.28
2023-02-03T02:46:14.691Z,101237.00
2023-02-03T02:48:55.038Z,101249.72
2023-02-03T02:51:22.957Z,101250.44
2023-02-03T02:53:55.046Z,101255.47
2023-02-03T02:56:24.421Z,101265.66
2023-02-03T02:58:52.026Z,101263.94
2023-02-03T03:01:19.506Z,101267.53
2023-02-03T03:03:46.766Z,101267.53
2023-02-03T03:06:24.957Z,101270.06
2023-02-03T03:08:59.044Z,101274.37
2023-02-03T03:11:29.620Z,101281.28
2023-02-03T03:13:58.008Z,101272.78
2023-02-03T03:16:27.552Z,101274.56
2023-02-03T03:19:11.599Z,101274.63
2023-02-03T03:21:43.595Z,101281.47
2023-02-03T03:24:12.782Z,101281.50
2023-02-03T03:26:40.627Z,101275.53
2023-02-03T03:29:16.103Z,101275.56
2023-02-03T03:31:44.115Z,101272.19
2023-02-03T03:34:12.601Z,101285.84
2023-02-03T03:37:14.867Z,101283.25
2023-02-03T03:39:45.386Z,101292.78
2023-02-03T03:42:21.317Z,101288.44
2023-02-03T03:44:57.268Z,101288.47
2023-02-03T03:47:45.024Z,101286.59
2023-02-03T03:50:16.623Z,101282.13
2023-02-03T03:52:44.274Z,101276.88
2023-02-03T03:55:11.868Z,101282.75
2023-02-03T03:57:43.538Z,101279.53
2023-02-03T04:00:13.108Z,101272.75
2023-02-03T04:02:42.928Z,101260.03
2023-02-03T04:05:10.922Z,101265.94
2023-02-03T04:07:39.874Z,101265.97
2023-02-03T04:10:21.249Z,101263.50
2023-02-03T04:12:48.359Z,101259.38
2023-02-03T04:15:16.045Z,101249.22
2023-02-03T04:17:43.158Z,101250.28
2023-02-03T04:20:10.946Z,101246.91
2023-02-03T04:22:38.557Z,101245.19
2023-02-03T04:25:06.226Z,101246.06
2023-02-03T04:27:35.417Z,101241.78
2023-02-03T04:30:03.835Z,101235.78
2023-02-03T04:32:31.141Z,101238.25
2023-02-03T04:34:58.929Z,101227.09
2023-02-03T04:37:28.846Z,101230.53
2023-02-03T04:39:56.085Z,101246.75
2023-02-03T04:42:24.041Z,101240.69
2023-02-03T04:44:51.614Z,101245.75
2023-02-03T04:47:19.058Z,101242.19
2023-02-03T04:49:46.233Z,101249.84
2023-02-03T04:52:13.861Z,101256.63
2023-02-03T04:54:40.925Z,101259.06
2023-02-03T04:57:08.000Z,101264.13
2023-02-03T04:59:35.384Z,101252.12
2023-02-03T05:02:06.613Z,101248.69
2023-02-03T05:04:33.930Z,101258.03
2023-02-03T05:07:01.402Z,101254.16
2023-02-03T05:09:28.758Z,101252.28
2023-02-03T05:11:55.964Z,101263.28
2023-02-03T05:14:23.332Z,101258.53
2023-02-03T05:16:50.477Z,101262.09
2023-02-03T05:19:17.666Z,101254.66
2023-02-03T05:21:45.042Z,101263.28
2023-02-03T05:24:12.243Z,101264.25
2023-02-03T05:26:39.324Z,101266.84
2023-02-03T05:29:06.776Z,101276.34
2023-02-03T05:31:34.824Z,101267.84
2023-02-03T05:34:02.143Z,101265.31
2023-02-03T05:36:29.636Z,101263.63
2023-02-03T05:38:56.722Z,101266.16
2023-02-03T05:41:42.481Z,101257.66
2023-02-03T05:44:09.904Z,101260.25
2023-02-03T05:46:36.988Z,101274.78
2023-02-03T05:49:04.149Z,101261.94
2023-02-03T05:51:31.596Z,101261.09
2023-02-03T05:53:58.753Z,101265.38
2023-02-03T05:56:26.429Z,101263.66
2023-02-03T05:58:53.910Z,101264.50
2023-02-03T06:01:21.040Z,101268.66
2023-02-03T06:03:48.714Z,101274.63
2023-02-03T06:06:16.681Z,101275.41
2023-02-03T06:08:43.837Z,101280.56
2023-02-03T06:11:11.548Z,101275.38
2023-02-03T06:13:38.691Z,101283.97
2023-02-03T06:16:05.980Z,101280.53
2023-02-03T06:18:33.434Z,101266.81
2023-02-03T06:21:00.648Z,101277.09
2023-02-03T06:23:28.048Z,101265.97
2023-02-03T06:25:55.581Z,101266.81
2023-02-03T06:28:22.834Z,101273.66
2023-02-03T06:30:51.500Z,101278.78
2023-02-03T06:33:20.108Z,101295.06
2023-02-03T06:35:47.191Z,101289.09
2023-02-03T06:38:14.294Z,101293.31
2023-02-03T06:40:41.685Z,101284.72
2023-02-03T06:43:08.887Z,101277.87
2023-02-03T06:45:36.109Z,101281.28
2023-02-03T06:48:03.761Z,101277.87
2023-02-03T06:50:30.989Z,101278.69
2023-02-03T06:52:58.210Z,101271.81
2023-02-03T06:55:25.698Z,101280.41
2023-02-03T06:57:52.942Z,101272.72
2023-02-03T07:00:21.434Z,101265.88
2023-02-03T07:02:59.315Z,101265.94
2023-02-03T07:05:27.941Z,101261.69
2023-02-03T07:07:55.474Z,101264.25
2023-02-03T07:10:22.636Z,101262.53
2023-02-03T07:12:50.919Z,101252.22
2023-02-03T07:15:18.908Z,101257.37
2023-02-03T07:17:54.351Z,101257.34
2023-02-03T07:20:23.405Z,101264.19
2023-02-03T07:22:57.663Z,101268.41
2023-02-03T07:25:25.652Z,101267.47
2023-02-03T07:27:52.980Z,101270.00
2023-02-03T07:30:20.254Z,101276.75
2023-02-03T07:32:51.793Z,101276.75
2023-02-03T07:35:19.699Z,101278.47
2023-02-03T07:37:46.812Z,101280.56
2023-02-03T07:40:15.084Z,101289.72
2023-02-03T07:42:46.819Z,101280.91
2023-02-03T07:45:16.322Z,101304.41
2023-02-03T07:47:44.079Z,101302.00
2023-02-03T07:50:11.904Z,101299.62
2023-02-03T07:52:39.926Z,101297.13
2023-02-03T07:55:07.655Z,101305.72
2023-02-03T07:57:34.867Z,101298.88
2023-02-03T08:00:02.625Z,101297.66
2023-02-03T08:02:39.152Z,101303.66
2023-02-03T08:05:06.894Z,101300.75
2023-02-03T08:07:33.991Z,101296.12
2023-02-03T08:10:01.330Z,101306.66
2023-02-03T08:12:28.674Z,101300.09
2023-02-03T08:14:55.971Z,101289.06
2023-02-03T08:17:23.155Z,101279.38
2023-02-03T08:19:50.531Z,101280.81
2023-02-03T08:22:18.020Z,101287.63
2023-02-03T08:24:46.786Z,101286.88
2023-02-03T08:27:15.816Z,101288.84
2023-02-03T08:29:43.681Z,101287.22
2023-02-03T08:32:15.837Z,101290.69
2023-02-03T08:34:43.450Z,101294.28
2023-02-03T08:37:14.413Z,101290.06
2023-02-03T08:39:41.737Z,101294.09
2023-02-03T08:42:09.658Z,101297.31
2023-02-03T08:44:39.033Z,101293.63
2023-02-03T08:47:07.121Z,101293.91
2023-02-03T08:49:35.966Z,101293.94
2023-02-03T08:52:03.158Z,101301.06
2023-02-03T08:54:30.264Z,101292.47
2023-02-03T08:56:57.927Z,101299.44
2023-02-03T08:59:25.106Z,101302.06
2023-02-03T09:01:52.679Z,101305.75
2023-02-03T09:04:24.550Z,101311.72
2023-02-03T09:06:54.509Z,101314.38
2023-02-03T09:09:23.061Z,101317.09
2023-02-03T09:11:50.359Z,101313.62
2023-02-03T09:14:17.463Z,101311.06
2023-02-03T09:16:44.929Z,101312.81
2023-02-03T09:19:13.490Z,101311.16
2023-02-03T09:21:42.550Z,101306.00
2023-02-03T09:24:11.647Z,101310.25
2023-02-03T09:26:38.732Z,101295.69
2023-02-03T09:29:07.235Z,101292.41
2023-02-03T09:31:34.700Z,101298.22
2023-02-03T09:34:02.049Z,101293.72
2023-02-03T09:36:30.836Z,101284.31
2023-02-03T09:38:58.754Z,101277.56
2023-02-03T09:41:34.698Z,101271.53
2023-02-03T09:44:18.675Z,101260.41
2023-02-03T09:46:49.080Z,101263.78
2023-02-03T09:49:16.465Z,101254.50
2023-02-03T09:51:47.059Z,101248.59
2023-02-03T09:54:22.075Z,101237.09
2023-02-03T09:56:52.482Z,101225.97
2023-02-03T09:59:19.976Z,101226.69
2023-02-03T10:02:09.575Z,101218.62
2023-02-03T10:04:44.908Z,101212.53
2023-02-03T10:07:14.762Z,101206.09
2023-02-03T10:09:50.878Z,101205.56
2023-02-03T10:12:23.966Z,101200.78
2023-02-03T10:15:03.973Z,101208.09
2023-02-03T10:17:34.326Z,101190.25
2023-02-03T10:20:01.664Z,101190.06
2023-02-03T10:22:31.206Z,101180.69
2023-02-03T10:25:07.827Z,101177.78
2023-02-03T10:27:36.294Z,101175.34
2023-02-03T10:30:24.823Z,101169.00
2023-02-03T10:33:10.504Z,101159.75
2023-02-03T10:35:49.753Z,101151.06
2023-02-03T10:38:41.574Z,101142.56
2023-02-03T10:41:08.980Z,101139.13
2023-02-03T10:43:48.707Z,101137.44
2023-02-03T10:46:17.833Z,101124.41
2023-02-03T10:48:45.604Z,101128.53
2023-02-03T10:51:35.734Z,101106.22
2023-02-03T10:54:03.387Z,101115.81
2023-02-03T10:56:33.269Z,101096.88
2023-02-03T10:59:00.802Z,101096.09
2023-02-03T11:01:40.797Z,101087.66
2023-02-03T11:04:23.477Z,101075.72
2023-02-03T11:07:01.565Z,101066.16
2023-02-03T11:09:35.842Z,101052.81
2023-02-03T11:12:12.106Z,101062.75
2023-02-03T11:14:43.155Z,101089.16
2023-02-03T11:17:27.348Z,101059.56
2023-02-03T11:19:57.616Z,101038.25
2023-02-03T11:22:34.570Z,101037.56
2023-02-03T11:25:03.212Z,101032.50
2023-02-03T11:27:32.185Z,101022.75
2023-02-03T11:30:11.749Z,101032.50
2023-02-03T11:32:41.691Z,101032.59
2023-02-03T11:35:19.091Z,101020.37
2023-02-03T11:37:48.579Z,101024.41
2023-02-03T11:40:15.952Z,101021.19
2023-02-03T11:42:45.143Z,101016.13
2023-02-03T11:45:25.302Z,101006.13
2023-02-03T11:48:14.178Z,100994.31
2023-02-03T11:51:05.660Z,100997.16
2023-02-03T11:54:05.177Z,100971.78
2023-02-03T11:56:35.657Z,100977.91
2023-02-03T11:59:05.708Z,100959.34
2023-02-03T12:01:42.122Z,100949.50
2023-02-03T12:04:16.834Z,100938.81
2023-02-03T12:06:54.391Z,100930.56
2023-02-03T12:09:53.064Z,100930.59
2023-02-03T12:12:25.977Z,100922.81
2023-02-03T12:14:59.569Z,100917.25
2023-02-03T12:17:54.083Z,100909.06
2023-02-03T12:20:58.991Z,100906.25
2023-02-03T12:23:28.961Z,100896.31
2023-02-03T12:26:20.972Z,100890.31
2023-02-03T12:28:50.966Z,100888.47
2023-02-03T12:31:38.427Z,100872.50
2023-02-03T12:34:24.615Z,100868.25
2023-02-03T12:37:08.895Z,100855.00
2023-02-03T12:39:42.627Z,100843.75
2023-02-03T12:42:18.302Z,100835.62
2023-02-03T12:44:48.530Z,100825.06
2023-02-03T12:47:24.587Z,100823.28
2023-02-03T12:50:00.909Z,100813.34
2023-02-03T12:52:36.752Z,100808.19
2023-02-03T12:55:26.043Z,100804.19
2023-02-03T12:58:00.814Z,100793.47
2023-02-03T13:00:35.011Z,100795.34
2023-02-03T13:03:31.810Z,100782.41
2023-02-03T13:06:05.582Z,100783.94
2023-02-03T13:08:36.627Z,100775.31
2023-02-03T13:11:32.157Z,100756.16
2023-02-03T13:14:12.749Z,100758.03
2023-02-03T13:16:44.316Z,100748.06
2023-02-03T13:19:17.320Z,100742.66
2023-02-03T13:21:46.627Z,100734.78
2023-02-03T13:24:14.119Z,100738.78
2023-02-03T13:26:50.444Z,100731.81
2023-02-03T13:29:33.147Z,100718.34
2023-02-03T13:32:09.474Z,100697.25
2023-02-03T13:34:52.350Z,100701.78
2023-02-03T13:37:43.002Z,100687.50
2023-02-03T13:40:37.469Z,100692.44
2023-02-03T13:43:07.019Z,100690.72
2023-02-03T13:45:39.320Z,100691.22
2023-02-03T13:48:17.305Z,100685.41
2023-02-03T13:50:45.583Z,100676.31
2023-02-03T13:53:23.208Z,100674.47
2023-02-03T13:55:56.420Z,100662.91
2023-02-03T13:58:36.497Z,100661.06
2023-02-03T14:01:22.708Z,100657.44
2023-02-03T14:03:50.342Z,100651.50
2023-02-03T14:06:36.283Z,100632.12
2023-02-03T14:09:31.548Z,100631.69
2023-02-03T14:12:17.434Z,100627.37
2023-02-03T14:14:51.115Z,100626.91
2023-02-03T14:17:43.252Z,100623.81
2023-02-03T14:20:43.679Z,100622.06
2023-02-03T14:23:16.992Z,100612.72
2023-02-03T14:25:48.681Z,100607.69
2023-02-03T14:28:21.336Z,100602.81
2023-02-03T14:31:10.941Z,100606.94
2023-02-03T14:34:03.126Z,100591.38
2023-02-03T14:36:31.736Z,100589.19
2023-02-03T14:39:01.375Z,100587.78
2023-02-03T14:41:45.701Z,100583.38
2023-02-03T14:44:31.826Z,100583.28
2023-02-03T14:47:10.641Z,100561.91
2023-02-03T14:50:22.244Z,100573.47
2023-02-03T14:53:13.772Z,100568.47
2023-02-03T14:55:59.641Z,100561.03
2023-02-03T14:58:32.228Z,100559.50
2023-02-03T15:01:04.192Z,100557.38
2023-02-03T15:03:31.571Z,100556.13
2023-02-03T15:06:05.551Z,100551.25
2023-02-03T15:08:33.402Z,100552.41
2023-02-03T15:11:01.119Z,100555.50
2023-02-03T15:13:31.686Z,100539.47
2023-02-03T15:16:01.356Z,100537.47
2023-02-03T15:18:32.168Z,100533.97
2023-02-03T15:20:59.716Z,100518.56
2023-02-03T15:23:30.070Z,100532.72
2023-02-03T15:26:02.431Z,100527.84
2023-02-03T15:28:30.667Z,100530.12
2023-02-03T15:31:20.204Z,100517.47
2023-02-03T15:33:49.915Z,100511.81
2023-02-03T15:36:23.175Z,100494.75
2023-02-03T15:38:56.282Z,100484.63
2023-02-03T15:41:24.757Z,100483.41
2023-02-03T15:43:56.721Z,100477.97
2023-02-03T15:46:30.735Z,100486.69
2023-02-03T15:49:06.379Z,100486.41
2023-02-03T15:51:39.325Z,100481.53
2023-02-03T15:54:11.742Z,100479.62
2023-02-03T15:56:42.929Z,100483.69
2023-02-03T15:59:26.509Z,100474.53
2023-02-03T16:01:53.780Z,100473.63
2023-02-03T16:04:22.178Z,100466.72
2023-02-03T16:06:50.396Z,100466.25
2023-02-03T16:09:40.528Z,100460.13
2023-02-03T16:12:25.664Z,100453.66
2023-02-03T16:14:54.154Z,100453.31
2023-02-03T16:17:28.185Z,100446.75
2023-02-03T16:20:13.472Z,100452.66
2023-02-03T16:22:46.021Z,100448.34
2023-02-03T16:25:23.850Z,100445.75
2023-02-03T16:28:31.000Z,100434.97
2023-02-03T16:31:21.403Z,100429.31
2023-02-03T16:34:10.484Z,100421.31
2023-02-03T16:37:01.107Z,100425.00
2023-02-03T16:39:47.424Z,100410.91
2023-02-03T16:42:38.340Z,100409.13
2023-02-03T16:45:37.216Z,100407.81
2023-02-03T16:48:23.373Z,100403.78
2023-02-03T16:50:52.819Z,100392.50
2023-02-03T16:53:30.880Z,100390.13
2023-02-03T16:56:04.341Z,100396.13
2023-02-03T16:58:31.500Z,100380.34
2023-02-03T17:01:01.171Z,100372.81
2023-02-03T17:03:28.926Z,100357.56
2023-02-03T17:05:56.715Z,100346.38
2023-02-03T17:08:25.691Z,100340.44
2023-02-03T17:10:53.183Z,100332.56
2023-02-03T17:13:22.756Z,100331.47
2023-02-03T17:15:54.884Z,100325.37
2023-02-03T17:18:22.273Z,100325.47
2023-02-03T17:20:49.928Z,100314.59
2023-02-03T17:23:17.342Z,100296.38
2023-02-03T17:25:46.713Z,100303.56
2023-02-03T17:28:14.730Z,100297.63
2023-02-03T17:30:42.109Z,100285.88
2023-02-03T17:33:12.351Z,100290.94
2023-02-03T17:35:44.902Z,100297.75
2023-02-03T17:38:13.317Z,100299.16
2023-02-03T17:54:30.587Z,100266.63
2023-02-03T17:56:58.330Z,100262.53
2023-02-03T17:59:25.501Z,100253.00
2023-02-03T18:01:53.263Z,100244.22
2023-02-03T18:04:20.714Z,100241.78
2023-02-03T18:06:47.899Z,100244.28
2023-02-03T18:09:16.591Z,100248.06
2023-02-03T18:11:45.788Z,100243.69
2023-02-03T18:14:14.367Z,100247.69
2023-02-03T18:16:42.571Z,100237.53
2023-02-03T18:19:14.297Z,100231.59
2023-02-03T18:21:42.579Z,100234.22
2023-02-03T18:24:12.197Z,100216.03
2023-02-03T18:26:47.103Z,100221.72
2023-02-03T18:29:14.686Z,100213.16
2023-02-03T18:31:44.050Z,100208.66
2023-02-03T18:34:11.508Z,100216.03
2023-02-03T18:39:09.332Z,100199.00
2023-02-03T18:41:39.044Z,100207.84
2023-02-03T18:44:06.156Z,100201.75
2023-02-03T18:46:33.630Z,100194.97
2023-02-03T18:49:01.091Z,100194.81
2023-02-03T18:51:28.400Z,100193.06
2023-02-03T18:53:59.727Z,100186.41
2023-02-03T18:56:35.070Z,100185.41
2023-02-03T18:59:08.506Z,100180.19
2023-02-03T19:01:36.572Z,100188.06
2023-02-03T19:04:04.378Z,100188.06
2023-02-03T19:06:32.832Z,100197.69
2023-02-03T19:09:00.360Z,100193.31
2023-02-03T19:11:27.593Z,100189.78
2023-02-03T19:13:54.750Z,100193.22
2023-02-03T19:16:22.115Z,100194.03
2023-02-03T19:18:49.251Z,100176.72
2023-02-03T19:21:17.463Z,100182.72
2023-02-03T19:23:44.868Z,100185.25
2023-02-03T19:26:12.211Z,100185.78
2023-02-03T19:28:40.465Z,100193.41
2023-02-03T19:31:15.147Z,100203.41
2023-02-03T19:33:42.872Z,100197.31
2023-02-03T19:36:11.049Z,100197.97
2023-02-03T19:38:38.328Z,100195.50
2023-02-03T19:41:07.132Z,100184.44
2023-02-03T19:43:34.632Z,100163.44
2023-02-03T19:46:02.363Z,100165.53
2023-02-03T19:48:29.610Z,100173.38
2023-02-03T19:50:57.033Z,100175.94
2023-02-03T19:53:24.458Z,100177.75
2023-02-03T19:55:53.212Z,100178.63
2023-02-03T19:58:20.965Z,100170.72
2023-02-03T20:00:48.054Z,100171.34
2023-02-03T20:03:17.692Z,100162.72
2023-02-03T20:05:44.816Z,100176.37
2023-02-03T20:08:14.448Z,100165.25
2023-02-03T20:10:44.630Z,100167.75
2023-02-03T20:13:12.834Z,100175.50
2023-02-03T20:15:39.987Z,100178.59
2023-02-03T20:18:07.935Z,100180.88
2023-02-03T20:20:35.728Z,100192.75
2023-02-03T20:23:02.883Z,100187.59
2023-02-03T20:25:30.414Z,100190.09
2023-02-03T20:28:01.997Z,100208.03
2023-02-03T20:30:29.518Z,100216.37
2023-02-03T20:32:57.218Z,100195.09
2023-02-03T20:35:25.239Z,100201.03
2023-02-03T20:37:53.606Z,100200.03
2023-02-03T20:40:23.014Z,100197.44
2023-02-03T20:42:53.393Z,100203.22
2023-02-03T20:45:23.093Z,100205.72
2023-02-03T20:47:50.660Z,100204.72
2023-02-03T20:50:28.898Z,100200.56
2023-02-03T20:52:59.156Z,100207.69
2023-02-03T20:55:26.270Z,100204.06
2023-02-03T20:57:55.928Z,100201.75
2023-02-03T21:00:26.627Z,100197.56
2023-02-03T21:03:12.309Z,100209.87
2023-02-03T21:05:42.464Z,100202.91
2023-02-03T21:08:16.580Z,100208.19
2023-02-03T21:10:45.583Z,100210.72
2023-02-03T21:13:30.157Z,100202.22
2023-02-03T21:16:04.562Z,100207.44
2023-02-03T21:18:40.156Z,100190.56
2023-02-03T21:21:24.936Z,100195.91
2023-02-03T21:23:53.374Z,100194.09
2023-02-03T21:26:25.666Z,100195.09
2023-02-03T21:28:58.019Z,100199.47
2023-02-03T21:31:28.499Z,100188.38
2023-02-03T21:33:57.806Z,100191.72
2023-02-03T21:36:27.599Z,100193.63
2023-02-03T21:38:57.483Z,100189.31
2023-02-03T21:41:26.004Z,100192.06
2023-02-03T21:43:55.119Z,100195.41
2023-02-03T21:46:29.242Z,100197.09
2023-02-03T21:49:03.251Z,100198.78
2023-02-03T21:51:33.721Z,100199.66
2023-02-03T21:54:03.157Z,100204.94
2023-02-03T21:56:43.232Z,100212.69
2023-02-03T21:59:19.037Z,100214.56
2023-02-03T22:01:46.886Z,100206.81
2023-02-03T22:04:14.429Z,100212.88
2023-02-03T22:06:48.996Z,100227.63
2023-02-03T22:09:18.640Z,100221.59
2023-02-03T22:11:46.028Z,100211.28
2023-02-03T22:14:14.090Z,100219.78
2023-02-03T22:16:41.553Z,100228.31
2023-02-03T22:19:09.223Z,100233.47
2023-02-03T22:21:36.606Z,100220.63
2023-02-03T22:24:04.502Z,100229.16
2023-02-03T22:26:31.628Z,100237.78
2023-02-03T22:28:58.737Z,100238.50
2023-02-03T22:31:26.190Z,100242.72
2023-02-03T22:33:53.339Z,100241.84
2023-02-03T22:36:23.344Z,100242.72
2023-02-03T22:38:50.980Z,100253.50
2023-02-03T22:41:18.046Z,100246.00
2023-02-03T22:43:45.101Z,100250.19
2023-02-03T22:46:12.611Z,100258.19
2023-02-03T22:48:39.734Z,100244.41
2023-02-03T22:51:06.882Z,100249.78
2023-02-03T22:53:34.893Z,100250.66
2023-02-03T22:56:01.998Z,100246.31
2023-02-03T22:58:29.127Z,100251.28
2023-02-03T23:00:56.616Z,100259.06
2023-02-03T23:03:23.768Z,100262.44
2023-02-03T23:05:50.944Z,100259.81
2023-02-03T23:08:18.287Z,100262.22
2023-02-03T23:10:45.358Z,100256.78
2023-02-03T23:13:12.429Z,100241.31
2023-02-03T23:15:39.902Z,100243.69
2023-02-03T23:18:07.051Z,100224.09
2023-02-03T23:20:34.165Z,100214.56
2023-02-03T23:23:01.567Z,100215.25
2023-02-03T23:25:28.634Z,100212.56
2023-02-03T23:27:55.718Z,100204.25
2023-02-03T23:30:23.137Z,100212.09
2023-02-03T23:32:50.201Z,100193.63
2023-02-03T23:35:36.262Z,100194.47
2023-02-03T23:38:03.693Z,100184.91
2023-02-03T23:40:31.053Z,100189.31
2023-02-03T23:42:58.307Z,100180.66
2023-02-03T23:45:25.649Z,100164.41
2023-02-03T23:47:52.743Z,100163.47
2023-02-03T23:50:20.194Z,100166.84
2023-02-03T23:52:48.201Z,100167.66
2023-02-03T23:55:17.386Z,100165.22
2023-02-03T23:57:45.173Z,100153.19
